createdAt,value
2018-07-28T00:01:51.746Z,75.11
2018-07-28T00:04:19.583Z,76.08
2018-07-28T00:06:47.493Z,76.09
2018-07-28T00:09:15.373Z,75.72
2018-07-28T00:11:43.782Z,75.17
2018-07-28T00:14:11.669Z,76.01
2018-07-28T00:16:39.590Z,75.34
2018-07-28T00:19:07.400Z,75.54
2018-07-28T00:21:35.266Z,76.76
2018-07-28T00:24:03.128Z,77.19
2018-07-28T00:26:30.998Z,76.75
2018-07-28T00:28:58.911Z,77.41
2018-07-28T00:31:26.825Z,77.68
2018-07-28T00:33:54.693Z,77.34
2018-07-28T00:36:22.463Z,77.15
2018-07-28T00:38:50.294Z,76.90
2018-07-28T00:41:18.166Z,77.70
2018-07-28T00:43:46.074Z,76.90
2018-07-28T00:46:13.900Z,77.41
2018-07-28T00:48:41.750Z,76.96
2018-07-28T00:51:09.597Z,77.75
2018-07-28T00:53:37.417Z,78.06
2018-07-28T00:56:05.436Z,77.61
2018-07-28T00:58:33.271Z,77.92
2018-07-28T01:01:01.172Z,77.58
2018-07-28T01:03:29.017Z,77.19
2018-07-28T01:05:56.929Z,77.49
2018-07-28T01:08:24.778Z,76.98
2018-07-28T01:10:52.683Z,77.86
2018-07-28T01:13:20.478Z,77.40
2018-07-28T01:15:48.246Z,78.31
2018-07-28T01:18:16.165Z,77.98
2018-07-28T01:20:44.062Z,77.13
2018-07-28T01:23:18.681Z,77.91
2018-07-28T01:25:46.562Z,77.76
2018-07-28T01:28:14.429Z,77.82
2018-07-28T01:30:42.284Z,77.75
2018-07-28T01:33:10.097Z,79.63
2018-07-28T01:35:37.980Z,79.02
2018-07-28T01:38:05.918Z,78.41
2018-07-28T01:40:33.808Z,79.07
2018-07-28T01:43:01.679Z,78.47
2018-07-28T01:45:29.598Z,78.25
2018-07-28T01:47:57.482Z,78.81
2018-07-28T01:50:25.314Z,77.77
2018-07-28T01:52:53.138Z,76.51
2018-07-28T01:55:20.997Z,77.28
2018-07-28T01:57:48.922Z,77.23
2018-07-28T02:00:16.862Z,77.08
2018-07-28T02:02:44.702Z,76.80
2018-07-28T02:05:12.546Z,77.26
2018-07-28T02:07:40.418Z,77.34
2018-07-28T02:10:09.357Z,77.16
2018-07-28T02:12:37.341Z,76.84
2018-07-28T02:15:06.072Z,76.76
2018-07-28T02:17:33.943Z,75.88
2018-07-28T02:20:01.797Z,74.77
2018-07-28T02:22:29.657Z,75.18
2018-07-28T02:24:57.576Z,74.17
2018-07-28T02:27:25.393Z,74.06
2018-07-28T02:29:53.221Z,73.81
2018-07-28T02:32:21.073Z,73.74
2018-07-28T02:34:48.883Z,73.08
2018-07-28T02:37:16.775Z,73.35
2018-07-28T02:39:44.549Z,73.09
2018-07-28T02:42:12.371Z,72.69
2018-07-28T02:44:40.221Z,72.97
2018-07-28T02:47:08.078Z,72.71
2018-07-28T02:49:35.897Z,71.62
2018-07-28T02:52:03.845Z,71.94
2018-07-28T02:54:31.699Z,71.75
2018-07-28T02:56:59.477Z,71.86
2018-07-28T02:59:27.225Z,70.96
2018-07-28T03:01:55.091Z,72.16
2018-07-28T03:04:22.911Z,72.78
2018-07-28T03:06:50.786Z,73.29
2018-07-28T03:09:18.605Z,73.34
2018-07-28T03:11:46.477Z,73.58
2018-07-28T03:14:14.366Z,73.95
2018-07-28T03:16:42.206Z,73.07
2018-07-28T03:19:10.027Z,72.71
2018-07-28T03:21:37.822Z,72.88
2018-07-28T03:24:05.674Z,73.05
2018-07-28T03:26:33.551Z,72.96
2018-07-28T03:29:01.324Z,72.64
2018-07-28T03:31:29.109Z,72.15
2018-07-28T03:33:56.961Z,72.04
2018-07-28T03:36:24.710Z,72.58
2018-07-28T03:38:52.581Z,75.15
2018-07-28T03:41:20.413Z,75.10
2018-07-28T03:43:48.283Z,75.15
2018-07-28T03:46:16.134Z,76.47
2018-07-28T03:48:43.998Z,75.55
2018-07-28T03:51:11.869Z,76.00
2018-07-28T03:53:40.070Z,76.88
2018-07-28T03:56:07.933Z,77.45
2018-07-28T03:58:35.750Z,75.04
2018-07-28T04:01:03.604Z,74.50
2018-07-28T04:03:31.498Z,75.52
2018-07-28T04:05:59.305Z,74.73
2018-07-28T04:08:27.202Z,73.02
2018-07-28T04:10:55.034Z,72.79
2018-07-28T04:13:22.822Z,71.13
2018-07-28T04:15:50.667Z,70.12
2018-07-28T04:18:18.533Z,70.15
2018-07-28T04:20:46.394Z,69.33
2018-07-28T04:23:14.286Z,69.03
2018-07-28T04:25:42.102Z,67.61
2018-07-28T04:28:09.944Z,68.94
2018-07-28T04:30:37.800Z,70.92
2018-07-28T04:33:05.658Z,69.91
2018-07-28T04:35:33.543Z,71.73
2018-07-28T04:38:01.404Z,70.32
2018-07-28T04:40:29.288Z,70.58
2018-07-28T04:42:57.062Z,69.08
2018-07-28T04:45:24.829Z,66.83
2018-07-28T04:47:52.593Z,66.58
2018-07-28T04:50:20.373Z,69.59
2018-07-28T04:52:48.137Z,70.75
2018-07-28T04:55:15.985Z,69.74
2018-07-28T04:57:43.827Z,71.41
2018-07-28T05:00:11.698Z,73.67
2018-07-28T05:02:39.481Z,73.44
2018-07-28T05:05:07.315Z,73.58
2018-07-28T05:07:35.302Z,76.46
2018-07-28T05:10:03.227Z,76.34
2018-07-28T05:12:31.029Z,75.44
2018-07-28T05:14:58.887Z,73.10
2018-07-28T05:17:26.706Z,74.53
2018-07-28T05:19:54.578Z,74.08
2018-07-28T05:22:22.455Z,73.04
2018-07-28T05:24:50.316Z,71.09
2018-07-28T05:27:18.109Z,70.25
2018-07-28T05:29:46.080Z,69.20
2018-07-28T05:32:13.845Z,68.59
2018-07-28T05:34:41.734Z,66.71
2018-07-28T05:37:09.549Z,65.98
2018-07-28T05:39:37.418Z,67.59
2018-07-28T05:42:05.247Z,67.29
2018-07-28T05:44:33.074Z,67.83
2018-07-28T05:47:00.921Z,68.02
2018-07-28T05:49:28.849Z,66.67
2018-07-28T05:51:57.054Z,68.26
2018-07-28T05:54:24.813Z,67.80
2018-07-28T05:56:52.656Z,67.45
2018-07-28T05:59:20.486Z,66.86
2018-07-28T06:01:48.333Z,65.84
2018-07-28T06:04:16.129Z,64.90
2018-07-28T06:06:44.053Z,64.61
2018-07-28T06:09:11.975Z,65.55
2018-07-28T06:11:39.915Z,66.61
2018-07-28T06:14:07.800Z,65.71
2018-07-28T06:16:35.682Z,66.12
2018-07-28T06:19:03.530Z,66.39
2018-07-28T06:21:31.317Z,68.39
2018-07-28T06:23:59.131Z,67.49
2018-07-28T06:26:26.997Z,67.35
2018-07-28T06:28:54.788Z,66.21
2018-07-28T06:31:22.569Z,64.94
2018-07-28T06:33:50.314Z,64.81
2018-07-28T06:36:18.341Z,64.90
2018-07-28T06:38:46.542Z,65.25
2018-07-28T06:41:14.321Z,65.88
2018-07-28T06:43:42.101Z,64.75
2018-07-28T06:46:09.974Z,61.43
2018-07-28T06:48:37.811Z,64.75
2018-07-28T06:51:05.790Z,65.62
2018-07-28T06:53:33.683Z,67.14
2018-07-28T06:56:01.471Z,63.13
2018-07-28T06:58:29.304Z,59.38
2018-07-28T07:00:57.121Z,55.90
2018-07-28T07:03:24.930Z,53.52
2018-07-28T07:05:52.750Z,52.62
2018-07-28T07:08:20.527Z,52.48
2018-07-28T07:10:48.330Z,57.37
2018-07-28T07:13:16.114Z,58.35
2018-07-28T07:15:43.918Z,59.80
2018-07-28T07:18:11.713Z,61.95
2018-07-28T07:20:39.517Z,64.50
2018-07-28T07:23:07.283Z,64.22
2018-07-28T07:25:35.088Z,62.58
2018-07-28T07:28:02.937Z,61.83
2018-07-28T07:30:30.786Z,58.88
2018-07-28T07:32:58.599Z,58.11
2018-07-28T07:35:26.441Z,58.58
2018-07-28T07:37:54.214Z,61.16
2018-07-28T07:40:21.990Z,62.29
2018-07-28T07:42:49.747Z,60.62
2018-07-28T07:45:17.501Z,59.49
2018-07-28T07:47:45.359Z,59.27
2018-07-28T07:50:13.135Z,58.30
2018-07-28T07:52:40.893Z,61.71
2018-07-28T07:55:08.754Z,64.32
2018-07-28T07:57:36.552Z,63.46
2018-07-28T08:00:04.442Z,62.82
2018-07-28T08:02:32.273Z,60.63
2018-07-28T08:05:00.082Z,58.32
2018-07-28T08:07:28.249Z,57.20
2018-07-28T08:09:56.036Z,54.46
2018-07-28T08:12:23.837Z,52.30
2018-07-28T08:14:51.675Z,50.64
2018-07-28T08:17:19.506Z,51.80
2018-07-28T08:19:47.294Z,52.21
2018-07-28T08:22:15.125Z,54.40
2018-07-28T08:24:42.930Z,57.21
2018-07-28T08:27:10.689Z,57.68
2018-07-28T08:29:38.472Z,57.56
2018-07-28T08:32:06.351Z,56.52
2018-07-28T08:34:34.104Z,58.52
2018-07-28T08:37:01.901Z,57.04
2018-07-28T08:39:29.676Z,55.70
2018-07-28T08:41:57.469Z,56.31
2018-07-28T08:44:25.240Z,52.98
2018-07-28T08:46:52.993Z,49.24
2018-07-28T08:49:20.805Z,48.89
2018-07-28T08:51:48.614Z,47.81
2018-07-28T08:54:16.364Z,46.09
2018-07-28T08:56:44.158Z,46.01
2018-07-28T08:59:11.913Z,44.48
2018-07-28T09:01:39.776Z,41.16
2018-07-28T09:04:07.644Z,41.45
2018-07-28T09:06:35.429Z,41.34
2018-07-28T09:09:04.344Z,44.15
2018-07-28T09:11:32.106Z,47.68
2018-07-28T09:13:59.928Z,48.90
2018-07-28T09:16:27.787Z,49.06
2018-07-28T09:18:55.553Z,51.84
2018-07-28T09:21:23.314Z,51.12
2018-07-28T09:23:51.118Z,48.72
2018-07-28T09:26:18.955Z,45.25
2018-07-28T09:28:46.863Z,48.19
2018-07-28T09:31:14.651Z,51.51
2018-07-28T09:33:42.445Z,48.88
2018-07-28T09:36:10.254Z,47.65
2018-07-28T09:38:38.040Z,45.33
2018-07-28T09:41:05.870Z,43.10
2018-07-28T09:43:33.649Z,43.06
2018-07-28T09:46:01.599Z,45.40
2018-07-28T09:48:29.358Z,48.17
2018-07-28T09:50:57.107Z,48.05
2018-07-28T09:53:24.937Z,46.00
2018-07-28T09:55:52.690Z,49.39
2018-07-28T09:58:20.486Z,46.92
2018-07-28T10:00:53.867Z,45.96
2018-07-28T10:03:21.674Z,51.63
2018-07-28T10:05:49.491Z,48.23
2018-07-28T10:08:17.294Z,43.94
2018-07-28T10:10:45.065Z,44.53
2018-07-28T10:13:12.894Z,45.23
2018-07-28T10:15:40.693Z,43.95
2018-07-28T10:18:08.458Z,45.19
2018-07-28T10:20:36.268Z,43.99
2018-07-28T10:23:04.120Z,43.96
2018-07-28T10:25:31.894Z,44.91
2018-07-28T10:27:59.901Z,45.01
2018-07-28T10:30:27.669Z,46.60
2018-07-28T10:32:55.455Z,48.22
2018-07-28T10:35:23.205Z,51.57
2018-07-28T10:37:50.949Z,51.59
2018-07-28T10:40:18.709Z,52.53
2018-07-28T10:42:46.474Z,51.41
2018-07-28T10:45:14.290Z,51.16
2018-07-28T10:47:42.106Z,50.74
2018-07-28T10:50:09.895Z,47.21
2018-07-28T10:52:37.654Z,45.28
2018-07-28T10:55:05.495Z,45.51
2018-07-28T10:57:33.286Z,42.58
2018-07-28T11:00:01.070Z,41.22
2018-07-28T11:02:28.865Z,41.35
2018-07-28T11:04:56.642Z,43.93
2018-07-28T11:07:24.401Z,45.22
2018-07-28T11:09:52.305Z,49.59
2018-07-28T11:12:20.169Z,49.45
2018-07-28T11:14:48.789Z,49.17
2018-07-28T11:17:16.637Z,48.57
2018-07-28T11:19:44.399Z,48.76
2018-07-28T11:22:12.223Z,49.48
2018-07-28T11:24:39.974Z,47.85
2018-07-28T11:27:07.778Z,44.78
2018-07-28T11:29:35.624Z,40.89
2018-07-28T11:32:14.641Z,39.97
2018-07-28T11:34:53.713Z,41.80
2018-07-28T11:37:32.699Z,44.01
2018-07-28T11:40:11.618Z,45.57
2018-07-28T11:42:50.481Z,42.99
2018-07-28T11:45:18.754Z,42.49
2018-07-28T11:47:46.569Z,42.00
2018-07-28T11:50:14.426Z,41.31
2018-07-28T11:52:42.455Z,43.14
2018-07-28T11:55:10.323Z,38.30
2018-07-28T11:57:38.143Z,42.90
2018-07-28T12:00:07.555Z,40.45
2018-07-28T12:02:35.330Z,38.19
2018-07-28T12:05:03.208Z,41.17
2018-07-28T12:07:31.036Z,41.01
2018-07-28T12:09:58.854Z,39.06
2018-07-28T12:12:26.690Z,38.38
2018-07-28T12:14:54.463Z,41.22
2018-07-28T12:17:22.251Z,43.88
2018-07-28T12:19:50.083Z,44.12
2018-07-28T12:22:17.893Z,39.83
2018-07-28T12:24:45.721Z,38.58
2018-07-28T12:27:13.553Z,36.28
2018-07-28T12:29:41.372Z,36.50
2018-07-28T12:32:09.458Z,36.82
2018-07-28T12:34:37.360Z,38.61
2018-07-28T12:37:05.321Z,37.71
2018-07-28T12:39:33.166Z,38.87
2018-07-28T12:42:01.067Z,38.56
2018-07-28T12:44:28.952Z,38.13
2018-07-28T12:46:56.725Z,40.69
2018-07-28T12:49:24.638Z,40.77
2018-07-28T12:51:52.482Z,38.74
2018-07-28T12:54:20.321Z,36.64
2018-07-28T12:56:48.218Z,38.23
2018-07-28T12:59:16.064Z,39.15
2018-07-28T13:01:43.986Z,39.28
2018-07-28T13:04:11.845Z,38.48
2018-07-28T13:06:39.689Z,36.87
2018-07-28T13:09:09.303Z,36.97
2018-07-28T13:11:37.126Z,35.93
2018-07-28T13:14:05.051Z,37.19
2018-07-28T13:16:33.021Z,39.14
2018-07-28T13:19:00.874Z,38.63
2018-07-28T13:21:28.712Z,38.40
2018-07-28T13:23:56.629Z,38.70
2018-07-28T13:26:24.541Z,36.31
2018-07-28T13:28:52.386Z,37.63
2018-07-28T13:31:20.225Z,38.29
2018-07-28T13:33:48.353Z,38.99
2018-07-28T13:36:16.176Z,39.52
2018-07-28T13:38:44.026Z,37.36
2018-07-28T13:41:11.902Z,34.92
2018-07-28T13:43:39.823Z,33.64
2018-07-28T13:46:07.636Z,36.36
2018-07-28T13:48:35.505Z,35.79
2018-07-28T13:51:03.412Z,35.83
2018-07-28T13:53:31.341Z,37.25
2018-07-28T13:55:59.575Z,38.52
2018-07-28T13:58:27.390Z,36.07
2018-07-28T14:00:55.207Z,36.85
2018-07-28T14:03:23.713Z,38.05
2018-07-28T14:05:51.514Z,39.72
2018-07-28T14:08:19.302Z,40.70
2018-07-28T14:10:47.118Z,38.98
2018-07-28T14:13:14.897Z,39.81
2018-07-28T14:15:42.695Z,39.92
2018-07-28T14:18:10.555Z,40.50
2018-07-28T14:20:38.350Z,39.86
2018-07-28T14:23:06.179Z,38.75
2018-07-28T14:25:34.014Z,40.42
2018-07-28T14:28:01.801Z,39.43
2018-07-28T14:30:29.652Z,39.36
2018-07-28T14:32:57.442Z,39.77
2018-07-28T14:35:25.297Z,40.43
2018-07-28T14:37:53.126Z,39.82
2018-07-28T14:40:20.935Z,38.37
2018-07-28T14:42:48.729Z,38.67
2018-07-28T14:45:16.549Z,39.30
2018-07-28T14:47:44.362Z,38.45
2018-07-28T14:50:12.299Z,37.05
2018-07-28T14:52:40.092Z,38.52
2018-07-28T14:55:07.952Z,37.02
2018-07-28T14:57:35.738Z,36.62
2018-07-28T15:00:03.610Z,37.55
2018-07-28T15:02:31.403Z,37.93
2018-07-28T15:04:59.215Z,38.89
2018-07-28T15:07:27.098Z,39.08
2018-07-28T15:09:54.879Z,38.99
2018-07-28T15:12:22.680Z,38.70
2018-07-28T15:14:50.565Z,39.75
2018-07-28T15:17:18.369Z,38.75
2018-07-28T15:19:46.192Z,39.74
2018-07-28T15:22:14.024Z,40.61
2018-07-28T15:24:41.805Z,40.83
2018-07-28T15:27:09.608Z,42.55
2018-07-28T15:29:37.459Z,41.80
2018-07-28T15:32:05.380Z,44.07
2018-07-28T15:34:33.169Z,44.35
2018-07-28T15:37:00.997Z,45.69
2018-07-28T15:39:28.767Z,47.91
2018-07-28T15:41:56.590Z,48.42
2018-07-28T15:44:26.118Z,48.42
2018-07-28T15:46:53.898Z,48.79
2018-07-28T15:49:21.662Z,47.45
2018-07-28T15:51:49.469Z,49.27
2018-07-28T15:54:17.258Z,49.96
2018-07-28T15:56:45.086Z,49.71
2018-07-28T15:59:12.921Z,48.50
2018-07-28T16:01:40.776Z,48.73
2018-07-28T16:04:08.553Z,47.07
2018-07-28T16:06:36.374Z,46.04
2018-07-28T16:09:07.013Z,46.12
2018-07-28T16:11:34.840Z,44.44
2018-07-28T16:14:02.681Z,45.20
2018-07-28T16:16:30.703Z,46.27
2018-07-28T16:18:58.536Z,48.82
2018-07-28T16:21:26.375Z,48.89
2018-07-28T16:23:54.249Z,51.28
2018-07-28T16:26:22.049Z,54.16
2018-07-28T16:28:49.891Z,54.73
2018-07-28T16:31:17.689Z,56.69
2018-07-28T16:33:45.485Z,57.72
2018-07-28T16:36:13.289Z,57.97
2018-07-28T16:38:41.098Z,57.96
2018-07-28T16:41:08.979Z,58.27
2018-07-28T16:43:36.824Z,57.41
2018-07-28T16:46:05.067Z,58.18
2018-07-28T16:48:32.846Z,58.59
2018-07-28T16:51:00.697Z,57.40
2018-07-28T16:53:28.518Z,58.64
2018-07-28T16:55:56.323Z,57.55
2018-07-28T16:58:24.156Z,57.25
2018-07-28T17:00:51.972Z,58.23
2018-07-28T17:03:19.998Z,58.98
2018-07-28T17:05:47.929Z,58.31
2018-07-28T17:08:15.746Z,58.11
2018-07-28T17:10:43.657Z,59.07
2018-07-28T17:13:11.490Z,60.06
2018-07-28T17:15:39.380Z,58.82
2018-07-28T17:18:07.227Z,59.41
2018-07-28T17:20:35.053Z,60.04
2018-07-28T17:23:02.886Z,60.70
2018-07-28T17:25:30.741Z,60.61
2018-07-28T17:27:58.582Z,60.73
2018-07-28T17:30:26.374Z,61.43
2018-07-28T17:32:54.173Z,60.74
2018-07-28T17:35:21.953Z,61.82
2018-07-28T17:37:49.749Z,61.67
2018-07-28T17:40:17.588Z,62.08
2018-07-28T17:42:45.353Z,61.51
2018-07-28T17:45:13.148Z,61.59
2018-07-28T17:47:41.001Z,60.35
2018-07-28T17:50:08.892Z,61.30
2018-07-28T17:52:36.860Z,61.37
2018-07-28T17:55:04.721Z,61.61
2018-07-28T17:57:32.553Z,61.37
2018-07-28T18:00:00.435Z,62.58
2018-07-28T18:02:28.241Z,61.57
2018-07-28T18:04:56.125Z,61.22
2018-07-28T18:07:23.951Z,62.03
2018-07-28T18:09:51.842Z,62.22
2018-07-28T18:12:19.733Z,63.05
2018-07-28T18:14:47.595Z,61.88
2018-07-28T18:17:15.483Z,61.02
2018-07-28T18:19:43.267Z,61.06
2018-07-28T18:22:11.927Z,61.42
2018-07-28T18:24:39.832Z,60.66
2018-07-28T18:27:07.914Z,60.49
2018-07-28T18:29:35.792Z,61.14
2018-07-28T18:32:03.626Z,62.18
2018-07-28T18:34:31.783Z,62.66
2018-07-28T18:36:59.593Z,61.22
2018-07-28T18:39:27.450Z,62.56
2018-07-28T18:41:55.337Z,64.96
2018-07-28T18:44:23.169Z,68.01
2018-07-28T18:46:50.968Z,72.51
2018-07-28T18:49:18.777Z,75.49
2018-07-28T18:51:46.535Z,76.40
2018-07-28T18:54:14.519Z,75.89
2018-07-28T18:56:42.345Z,77.81
2018-07-28T18:59:10.095Z,76.10
2018-07-28T19:01:37.972Z,76.59
2018-07-28T19:04:06.220Z,75.36
2018-07-28T19:06:34.076Z,76.62
2018-07-28T19:09:07.308Z,76.23
2018-07-28T19:11:35.153Z,74.04
2018-07-28T19:14:08.349Z,73.51
2018-07-28T19:16:36.193Z,74.14
2018-07-28T19:19:09.493Z,73.39
2018-07-28T19:21:37.328Z,75.44
2018-07-28T19:24:05.206Z,74.46
2018-07-28T19:26:33.061Z,76.25
2018-07-28T19:29:06.320Z,77.71
2018-07-28T19:31:34.138Z,79.77
2018-07-28T19:34:01.961Z,79.71
2018-07-28T19:36:35.249Z,78.64
2018-07-28T19:39:03.923Z,76.00
2018-07-28T19:41:36.225Z,77.52
2018-07-28T19:44:04.126Z,76.69
2018-07-28T19:46:31.946Z,76.65
2018-07-28T19:48:59.726Z,76.82
2018-07-28T19:51:27.574Z,77.83
2018-07-28T19:53:55.427Z,78.04
2018-07-28T19:56:23.236Z,78.14
2018-07-28T19:58:51.081Z,79.13
2018-07-28T20:01:18.897Z,79.43
2018-07-28T20:03:46.725Z,79.06
2018-07-28T20:06:14.530Z,79.39
2018-07-28T20:08:42.291Z,79.45
2018-07-28T20:11:10.053Z,77.67
2018-07-28T20:13:37.930Z,75.50
2018-07-28T20:16:05.804Z,74.79
2018-07-28T20:18:33.706Z,74.34
2018-07-28T20:21:01.604Z,76.36
2018-07-28T20:23:29.456Z,74.80
2018-07-28T20:25:57.348Z,74.78
2018-07-28T20:28:25.308Z,74.49
2018-07-28T20:30:53.124Z,74.63
2018-07-28T20:33:21.173Z,74.72
2018-07-28T20:35:49.096Z,74.94
2018-07-28T20:38:17.111Z,74.66
2018-07-28T20:40:45.056Z,74.27
2018-07-28T20:43:13.172Z,74.07
2018-07-28T20:45:41.020Z,74.14
2018-07-28T20:48:08.846Z,73.50
2018-07-28T20:50:36.680Z,74.98
2018-07-28T20:53:04.620Z,74.14
2018-07-28T20:55:32.469Z,73.96
2018-07-28T20:58:00.290Z,73.63
2018-07-28T21:00:28.122Z,73.88
2018-07-28T21:02:55.935Z,74.35
2018-07-28T21:05:23.796Z,74.03
2018-07-28T21:07:51.628Z,73.87
2018-07-28T21:10:19.445Z,73.54
2018-07-28T21:12:47.253Z,74.54
2018-07-28T21:15:15.053Z,73.23
2018-07-28T21:17:42.863Z,73.45
2018-07-28T21:20:10.691Z,74.66
2018-07-28T21:22:38.612Z,73.65
2018-07-28T21:25:06.439Z,74.41
2018-07-28T21:27:34.234Z,74.95
2018-07-28T21:30:02.051Z,75.65
2018-07-28T21:32:29.853Z,75.78
2018-07-28T21:34:57.661Z,75.43
2018-07-28T21:37:25.441Z,76.03
2018-07-28T21:39:53.293Z,75.72
2018-07-28T21:42:21.063Z,76.26
2018-07-28T21:44:48.849Z,77.33
2018-07-28T21:47:16.614Z,76.58
2018-07-28T21:49:44.369Z,75.74
2018-07-28T21:52:12.175Z,76.88
2018-07-28T21:54:39.975Z,75.53
2018-07-28T21:57:07.754Z,75.41
2018-07-28T21:59:35.528Z,75.61
2018-07-28T22:02:03.410Z,75.31
2018-07-28T22:04:33.543Z,74.88
2018-07-28T22:07:01.311Z,74.78
2018-07-28T22:09:29.065Z,74.32
2018-07-28T22:11:56.865Z,73.71
2018-07-28T22:14:24.649Z,74.36
2018-07-28T22:16:52.435Z,74.41
2018-07-28T22:19:20.189Z,73.68
2018-07-28T22:21:48.001Z,74.08
2018-07-28T22:24:15.824Z,75.85
2018-07-28T22:26:43.943Z,76.36
2018-07-28T22:29:11.721Z,75.31
2018-07-28T22:31:39.773Z,75.17
2018-07-28T22:34:07.950Z,75.92
2018-07-28T22:36:35.814Z,74.69
2018-07-28T22:39:05.068Z,74.43
2018-07-28T22:41:32.828Z,74.42
2018-07-28T22:44:00.597Z,75.54
2018-07-28T22:46:28.401Z,75.54
2018-07-28T22:48:56.217Z,76.70
2018-07-28T22:51:23.969Z,76.97
2018-07-28T22:53:51.736Z,77.62
2018-07-28T22:56:19.509Z,77.50
2018-07-28T22:58:47.265Z,76.61
2018-07-28T23:01:15.124Z,76.02
2018-07-28T23:03:42.877Z,75.63
2018-07-28T23:06:10.637Z,75.34
2018-07-28T23:08:38.427Z,75.35
2018-07-28T23:11:06.257Z,76.73
2018-07-28T23:13:34.048Z,76.00
2018-07-28T23:16:01.841Z,74.85
2018-07-28T23:18:29.589Z,74.59
2018-07-28T23:20:57.385Z,74.33
2018-07-28T23:23:25.167Z,75.23
2018-07-28T23:25:52.988Z,74.84
2018-07-28T23:28:20.905Z,75.44
2018-07-28T23:30:48.702Z,75.85
2018-07-28T23:33:16.479Z,75.16
2018-07-28T23:35:44.253Z,74.70
2018-07-28T23:38:12.077Z,75.41
2018-07-28T23:40:39.825Z,75.49
2018-07-28T23:43:07.602Z,74.65
2018-07-28T23:45:35.371Z,75.30
2018-07-28T23:48:03.207Z,75.55
2018-07-28T23:50:36.638Z,75.17
2018-07-28T23:53:04.515Z,75.46
2018-07-28T23:55:32.306Z,75.35
2018-07-28T23:58:00.109Z,75.34
